sensor_id;sensor_type;location;lat;lon;timestamp;pressure;altitude;pressure_sealevel;temperature;humidity
45078;BME280;60508;42.622;25.416;2022-12-13T00:00:42;95980.56;;;6.76;75.42
45078;BME280;60508;42.622;25.416;2022-12-13T00:03:08;95978.44;;;6.61;76.24
45078;BME280;60508;42.622;25.416;2022-12-13T00:05:34;95989.00;;;6.56;76.96
45078;BME280;60508;42.622;25.416;2022-12-13T00:08:00;95991.22;;;6.59;77.38
45078;BME280;60508;42.622;25.416;2022-12-13T00:10:26;95987.53;;;6.48;77.05
45078;BME280;60508;42.622;25.416;2022-12-13T00:12:52;95981.88;;;6.33;78.12
45078;BME280;60508;42.622;25.416;2022-12-13T00:15:18;95991.84;;;6.37;78.08
45078;BME280;60508;42.622;25.416;2022-12-13T00:17:43;95993.69;;;6.78;75.97
45078;BME280;60508;42.622;25.416;2022-12-13T00:20:11;95995.34;;;6.67;75.85
45078;BME280;60508;42.622;25.416;2022-12-13T00:22:37;95988.69;;;6.40;76.89
45078;BME280;60508;42.622;25.416;2022-12-13T00:25:03;96004.84;;;6.34;77.19
45078;BME280;60508;42.622;25.416;2022-12-13T00:27:29;95998.56;;;6.40;77.61
45078;BME280;60508;42.622;25.416;2022-12-13T00:29:55;95994.72;;;6.48;77.65
45078;BME280;60508;42.622;25.416;2022-12-13T00:32:21;95993.00;;;6.42;77.65
45078;BME280;60508;42.622;25.416;2022-12-13T00:34:48;95998.91;;;6.44;77.90
45078;BME280;60508;42.622;25.416;2022-12-13T00:37:14;95989.03;;;6.44;78.10
45078;BME280;60508;42.622;25.416;2022-12-13T00:39:40;95995.44;;;6.43;78.11
45078;BME280;60508;42.622;25.416;2022-12-13T00:42:05;95986.00;;;6.52;77.51
45078;BME280;60508;42.622;25.416;2022-12-13T00:44:31;95987.28;;;6.50;78.14
45078;BME280;60508;42.622;25.416;2022-12-13T00:46:57;95990.19;;;6.48;77.64
45078;BME280;60508;42.622;25.416;2022-12-13T00:49:24;95991.69;;;6.56;76.77
45078;BME280;60508;42.622;25.416;2022-12-13T00:51:50;95990.88;;;6.84;75.51
45078;BME280;60508;42.622;25.416;2022-12-13T00:54:16;95993.31;;;6.86;74.99
45078;BME280;60508;42.622;25.416;2022-12-13T00:56:42;95993.13;;;6.75;73.91
45078;BME280;60508;42.622;25.416;2022-12-13T00:59:12;96007.19;;;6.71;72.59
45078;BME280;60508;42.622;25.416;2022-12-13T01:01:39;96007.69;;;6.56;72.99
45078;BME280;60508;42.622;25.416;2022-12-13T01:04:05;96020.25;;;6.44;67.98
45078;BME280;60508;42.622;25.416;2022-12-13T01:06:32;96012.28;;;6.32;68.15
45078;BME280;60508;42.622;25.416;2022-12-13T01:09:00;96014.38;;;6.18;68.29
45078;BME280;60508;42.622;25.416;2022-12-13T01:11:26;96012.41;;;6.13;68.64
45078;BME280;60508;42.622;25.416;2022-12-13T01:13:52;96017.63;;;6.20;68.34
45078;BME280;60508;42.622;25.416;2022-12-13T01:16:18;96003.72;;;6.18;69.72
45078;BME280;60508;42.622;25.416;2022-12-13T01:18:44;96019.03;;;6.11;71.08
45078;BME280;60508;42.622;25.416;2022-12-13T01:21:16;96013.91;;;6.21;71.52
45078;BME280;60508;42.622;25.416;2022-12-13T01:23:42;96006.50;;;6.11;71.59
45078;BME280;60508;42.622;25.416;2022-12-13T01:26:14;96018.00;;;6.00;72.51
45078;BME280;60508;42.622;25.416;2022-12-13T01:28:41;96021.22;;;6.02;73.45
45078;BME280;60508;42.622;25.416;2022-12-13T01:31:09;96022.63;;;6.28;72.34
45078;BME280;60508;42.622;25.416;2022-12-13T01:33:36;96018.50;;;6.37;70.98
45078;BME280;60508;42.622;25.416;2022-12-13T01:36:07;96026.66;;;6.07;70.67
45078;BME280;60508;42.622;25.416;2022-12-13T01:38:34;96027.72;;;6.06;70.18
45078;BME280;60508;42.622;25.416;2022-12-13T01:41:00;96042.00;;;6.24;68.26
45078;BME280;60508;42.622;25.416;2022-12-13T01:46:07;96028.06;;;6.21;67.07
45078;BME280;60508;42.622;25.416;2022-12-13T01:48:37;96032.94;;;6.13;66.20
45078;BME280;60508;42.622;25.416;2022-12-13T01:51:06;96027.13;;;5.92;68.07
45078;BME280;60508;42.622;25.416;2022-12-13T01:53:36;96037.22;;;5.90;67.62
45078;BME280;60508;42.622;25.416;2022-12-13T01:56:07;96030.00;;;5.91;64.56
45078;BME280;60508;42.622;25.416;2022-12-13T01:58:35;96029.09;;;5.85;62.80
45078;BME280;60508;42.622;25.416;2022-12-13T02:01:03;96024.13;;;5.77;62.09
45078;BME280;60508;42.622;25.416;2022-12-13T02:03:29;96050.28;;;5.56;63.10
45078;BME280;60508;42.622;25.416;2022-12-13T02:06:11;96040.28;;;5.40;64.53
45078;BME280;60508;42.622;25.416;2022-12-13T02:08:39;96038.19;;;5.30;66.11
45078;BME280;60508;42.622;25.416;2022-12-13T02:11:07;96035.28;;;5.32;65.90
45078;BME280;60508;42.622;25.416;2022-12-13T02:13:34;96047.72;;;5.49;64.70
45078;BME280;60508;42.622;25.416;2022-12-13T02:18:49;96045.56;;;5.28;61.68
45078;BME280;60508;42.622;25.416;2022-12-13T02:21:39;96046.53;;;5.03;61.44
45078;BME280;60508;42.622;25.416;2022-12-13T02:35:51;96073.56;;;3.96;61.07
45078;BME280;60508;42.622;25.416;2022-12-13T02:38:28;96067.78;;;3.80;61.79
45078;BME280;60508;42.622;25.416;2022-12-13T02:41:08;96069.06;;;3.71;61.70
45078;BME280;60508;42.622;25.416;2022-12-13T02:43:46;96066.34;;;3.78;61.85
45078;BME280;60508;42.622;25.416;2022-12-13T02:46:17;96071.63;;;3.84;61.37
45078;BME280;60508;42.622;25.416;2022-12-13T02:48:46;96070.00;;;3.83;60.87
45078;BME280;60508;42.622;25.416;2022-12-13T02:51:14;96063.88;;;3.83;61.44
45078;BME280;60508;42.622;25.416;2022-12-13T02:53:41;96056.94;;;3.82;60.90
45078;BME280;60508;42.622;25.416;2022-12-13T02:56:07;96058.88;;;3.68;61.38
45078;BME280;60508;42.622;25.416;2022-12-13T02:58:38;96060.56;;;3.62;61.47
45078;BME280;60508;42.622;25.416;2022-12-13T03:01:24;96081.97;;;3.68;61.87
45078;BME280;60508;42.622;25.416;2022-12-13T03:06:45;96075.81;;;3.74;60.63
45078;BME280;60508;42.622;25.416;2022-12-13T03:12:05;96083.13;;;3.78;60.69
45078;BME280;60508;42.622;25.416;2022-12-13T03:15:06;96082.41;;;3.90;61.38
45078;BME280;60508;42.622;25.416;2022-12-13T03:17:42;96088.47;;;3.97;60.55
45078;BME280;60508;42.622;25.416;2022-12-13T03:20:15;96084.66;;;4.11;60.58
45078;BME280;60508;42.622;25.416;2022-12-13T03:22:41;96094.28;;;4.12;58.85
45078;BME280;60508;42.622;25.416;2022-12-13T03:25:07;96091.31;;;4.20;59.80
45078;BME280;60508;42.622;25.416;2022-12-13T03:27:33;96098.00;;;4.30;59.88
45078;BME280;60508;42.622;25.416;2022-12-13T03:29:59;96091.41;;;4.32;59.27
45078;BME280;60508;42.622;25.416;2022-12-13T03:32:24;96097.56;;;4.33;58.75
45078;BME280;60508;42.622;25.416;2022-12-13T03:34:50;96094.22;;;4.37;58.80
45078;BME280;60508;42.622;25.416;2022-12-13T03:37:16;96095.09;;;4.50;57.32
45078;BME280;60508;42.622;25.416;2022-12-13T03:39:42;96085.72;;;4.47;56.90
45078;BME280;60508;42.622;25.416;2022-12-13T03:42:07;96088.88;;;4.37;55.63
45078;BME280;60508;42.622;25.416;2022-12-13T03:44:33;96085.22;;;3.95;56.12
45078;BME280;60508;42.622;25.416;2022-12-13T03:46:59;96090.91;;;3.98;55.87
45078;BME280;60508;42.622;25.416;2022-12-13T03:49:25;96095.13;;;3.88;55.11
45078;BME280;60508;42.622;25.416;2022-12-13T03:51:50;96087.72;;;3.90;55.23
45078;BME280;60508;42.622;25.416;2022-12-13T03:54:16;96094.84;;;3.71;56.19
45078;BME280;60508;42.622;25.416;2022-12-13T03:56:42;96095.25;;;3.68;55.02
45078;BME280;60508;42.622;25.416;2022-12-13T03:59:08;96091.03;;;3.60;56.33
45078;BME280;60508;42.622;25.416;2022-12-13T04:01:34;96098.34;;;3.64;56.30
45078;BME280;60508;42.622;25.416;2022-12-13T04:03:59;96088.03;;;3.50;55.21
45078;BME280;60508;42.622;25.416;2022-12-13T04:06:25;96078.88;;;3.45;56.28
45078;BME280;60508;42.622;25.416;2022-12-13T04:08:51;96086.41;;;3.48;55.89
45078;BME280;60508;42.622;25.416;2022-12-13T04:11:17;96073.22;;;3.35;54.77
45078;BME280;60508;42.622;25.416;2022-12-13T04:14:02;96084.88;;;3.34;54.86
45078;BME280;60508;42.622;25.416;2022-12-13T04:16:28;96087.72;;;3.39;54.13
45078;BME280;60508;42.622;25.416;2022-12-13T04:18:53;96073.78;;;3.44;53.43
45078;BME280;60508;42.622;25.416;2022-12-13T04:21:19;96079.69;;;3.46;53.22
45078;BME280;60508;42.622;25.416;2022-12-13T04:23:45;96066.06;;;3.36;53.41
45078;BME280;60508;42.622;25.416;2022-12-13T04:26:11;96090.59;;;3.38;53.31
45078;BME280;60508;42.622;25.416;2022-12-13T04:28:36;96095.69;;;3.39;52.40
45078;BME280;60508;42.622;25.416;2022-12-13T04:31:02;96089.97;;;3.36;52.03
45078;BME280;60508;42.622;25.416;2022-12-13T04:33:28;96092.47;;;3.31;52.33
45078;BME280;60508;42.622;25.416;2022-12-13T04:35:57;96096.00;;;3.18;52.51
45078;BME280;60508;42.622;25.416;2022-12-13T04:38:23;96093.78;;;3.15;52.85
45078;BME280;60508;42.622;25.416;2022-12-13T04:40:48;96097.22;;;3.22;52.35
45078;BME280;60508;42.622;25.416;2022-12-13T04:43:14;96117.19;;;3.31;52.29
45078;BME280;60508;42.622;25.416;2022-12-13T04:45:40;96112.69;;;3.32;52.14
45078;BME280;60508;42.622;25.416;2022-12-13T04:48:06;96106.94;;;3.35;51.91
45078;BME280;60508;42.622;25.416;2022-12-13T04:50:32;96109.34;;;3.43;51.27
45078;BME280;60508;42.622;25.416;2022-12-13T04:52:58;96109.56;;;3.41;51.09
45078;BME280;60508;42.622;25.416;2022-12-13T04:55:23;96110.03;;;3.32;50.80
45078;BME280;60508;42.622;25.416;2022-12-13T04:57:49;96108.81;;;3.27;51.27
45078;BME280;60508;42.622;25.416;2022-12-13T05:00:15;96124.44;;;3.10;50.95
45078;BME280;60508;42.622;25.416;2022-12-13T05:02:41;96117.44;;;3.16;50.97
45078;BME280;60508;42.622;25.416;2022-12-13T05:05:08;96130.94;;;3.15;50.93
45078;BME280;60508;42.622;25.416;2022-12-13T05:07:36;96132.75;;;3.21;51.52
45078;BME280;60508;42.622;25.416;2022-12-13T05:10:02;96146.66;;;3.16;50.91
45078;BME280;60508;42.622;25.416;2022-12-13T05:12:28;96148.88;;;3.19;51.14
45078;BME280;60508;42.622;25.416;2022-12-13T05:14:54;96154.78;;;3.21;50.20
45078;BME280;60508;42.622;25.416;2022-12-13T05:17:21;96157.06;;;3.18;50.02
45078;BME280;60508;42.622;25.416;2022-12-13T05:19:47;96162.06;;;3.01;50.26
45078;BME280;60508;42.622;25.416;2022-12-13T05:22:13;96151.66;;;2.99;49.94
45078;BME280;60508;42.622;25.416;2022-12-13T05:24:42;96176.13;;;3.01;50.26
45078;BME280;60508;42.622;25.416;2022-12-13T05:27:10;96164.31;;;2.97;49.05
45078;BME280;60508;42.622;25.416;2022-12-13T05:29:36;96177.81;;;2.96;50.54
45078;BME280;60508;42.622;25.416;2022-12-13T05:32:03;96170.22;;;2.99;50.29
45078;BME280;60508;42.622;25.416;2022-12-13T05:34:29;96183.50;;;2.99;49.78
45078;BME280;60508;42.622;25.416;2022-12-13T05:36:55;96193.06;;;3.00;50.05
45078;BME280;60508;42.622;25.416;2022-12-13T05:39:21;96200.41;;;3.05;48.86
45078;BME280;60508;42.622;25.416;2022-12-13T05:41:47;96198.75;;;3.10;50.24
45078;BME280;60508;42.622;25.416;2022-12-13T05:44:13;96200.59;;;3.17;49.64
45078;BME280;60508;42.622;25.416;2022-12-13T05:46:39;96205.88;;;3.10;49.12
45078;BME280;60508;42.622;25.416;2022-12-13T05:49:05;96197.31;;;3.08;47.69
45078;BME280;60508;42.622;25.416;2022-12-13T05:51:31;96215.63;;;3.23;47.86
45078;BME280;60508;42.622;25.416;2022-12-13T05:53:57;96219.31;;;3.28;46.14
45078;BME280;60508;42.622;25.416;2022-12-13T05:56:23;96222.31;;;3.39;45.98
45078;BME280;60508;42.622;25.416;2022-12-13T05:58:49;96227.00;;;3.43;45.74
45078;BME280;60508;42.622;25.416;2022-12-13T06:01:15;96224.34;;;3.43;45.87
45078;BME280;60508;42.622;25.416;2022-12-13T06:03:42;96233.16;;;3.37;46.09
45078;BME280;60508;42.622;25.416;2022-12-13T06:06:10;96218.84;;;3.38;46.81
45078;BME280;60508;42.622;25.416;2022-12-13T06:08:43;96214.56;;;3.37;46.86
45078;BME280;60508;42.622;25.416;2022-12-13T06:11:10;96216.78;;;3.40;46.33
45078;BME280;60508;42.622;25.416;2022-12-13T06:13:36;96220.50;;;3.39;45.12
45078;BME280;60508;42.622;25.416;2022-12-13T06:16:04;96225.19;;;3.37;46.19
45078;BME280;60508;42.622;25.416;2022-12-13T06:18:34;96241.31;;;3.36;46.21
45078;BME280;60508;42.622;25.416;2022-12-13T06:21:05;96247.69;;;3.35;47.61
45078;BME280;60508;42.622;25.416;2022-12-13T06:23:32;96252.97;;;3.41;47.68
45078;BME280;60508;42.622;25.416;2022-12-13T06:26:04;96259.84;;;3.56;46.67
45078;BME280;60508;42.622;25.416;2022-12-13T06:28:30;96257.16;;;3.62;46.33
45078;BME280;60508;42.622;25.416;2022-12-13T06:31:01;96267.56;;;3.64;46.79
45078;BME280;60508;42.622;25.416;2022-12-13T06:33:28;96279.97;;;3.77;44.54
45078;BME280;60508;42.622;25.416;2022-12-13T06:35:56;96277.47;;;3.82;45.25
45078;BME280;60508;42.622;25.416;2022-12-13T06:38:24;96289.53;;;3.84;44.92
45078;BME280;60508;42.622;25.416;2022-12-13T06:40:50;96288.97;;;3.76;44.56
45078;BME280;60508;42.622;25.416;2022-12-13T06:43:17;96305.50;;;3.78;44.49
45078;BME280;60508;42.622;25.416;2022-12-13T06:45:43;96298.19;;;3.73;44.72
45078;BME280;60508;42.622;25.416;2022-12-13T06:48:08;96311.88;;;3.70;44.70
45078;BME280;60508;42.622;25.416;2022-12-13T06:50:34;96303.94;;;3.63;44.86
45078;BME280;60508;42.622;25.416;2022-12-13T06:53:00;96307.63;;;3.62;43.58
45078;BME280;60508;42.622;25.416;2022-12-13T06:55:26;96305.81;;;3.56;44.70
45078;BME280;60508;42.622;25.416;2022-12-13T06:57:52;96310.72;;;3.53;45.31
45078;BME280;60508;42.622;25.416;2022-12-13T07:00:18;96299.09;;;3.47;45.16
45078;BME280;60508;42.622;25.416;2022-12-13T07:02:43;96302.16;;;3.51;47.07
45078;BME280;60508;42.622;25.416;2022-12-13T07:05:09;96302.53;;;3.61;47.36
45078;BME280;60508;42.622;25.416;2022-12-13T07:07:35;96305.53;;;3.71;48.23
45078;BME280;60508;42.622;25.416;2022-12-13T07:10:01;96319.84;;;3.70;46.26
45078;BME280;60508;42.622;25.416;2022-12-13T07:12:26;96323.91;;;3.73;45.96
45078;BME280;60508;42.622;25.416;2022-12-13T07:14:52;96316.94;;;3.85;46.04
45078;BME280;60508;42.622;25.416;2022-12-13T07:17:19;96327.91;;;3.95;46.06
45078;BME280;60508;42.622;25.416;2022-12-13T07:19:45;96328.69;;;4.02;45.64
45078;BME280;60508;42.622;25.416;2022-12-13T07:22:11;96326.03;;;4.02;46.67
45078;BME280;60508;42.622;25.416;2022-12-13T07:24:37;96331.41;;;3.89;46.21
45078;BME280;60508;42.622;25.416;2022-12-13T07:27:03;96351.19;;;4.00;48.24
45078;BME280;60508;42.622;25.416;2022-12-13T07:29:29;96344.44;;;4.04;47.06
45078;BME280;60508;42.622;25.416;2022-12-13T07:31:55;96350.13;;;4.08;48.40
45078;BME280;60508;42.622;25.416;2022-12-13T07:34:20;96348.16;;;3.96;47.43
45078;BME280;60508;42.622;25.416;2022-12-13T07:36:48;96343.81;;;4.02;48.34
45078;BME280;60508;42.622;25.416;2022-12-13T07:39:14;96346.72;;;4.00;48.16
45078;BME280;60508;42.622;25.416;2022-12-13T07:41:40;96349.75;;;4.04;47.54
45078;BME280;60508;42.622;25.416;2022-12-13T07:44:06;96355.28;;;4.02;47.05
45078;BME280;60508;42.622;25.416;2022-12-13T07:46:32;96347.09;;;4.04;46.08
45078;BME280;60508;42.622;25.416;2022-12-13T07:49:00;96356.91;;;4.03;47.14
45078;BME280;60508;42.622;25.416;2022-12-13T07:51:27;96357.94;;;4.02;45.45
45078;BME280;60508;42.622;25.416;2022-12-13T07:53:53;96356.69;;;4.05;46.28
45078;BME280;60508;42.622;25.416;2022-12-13T07:56:19;96348.72;;;4.05;45.34
45078;BME280;60508;42.622;25.416;2022-12-13T07:58:45;96361.31;;;4.23;45.41
45078;BME280;60508;42.622;25.416;2022-12-13T08:01:11;96355.31;;;4.34;44.51
45078;BME280;60508;42.622;25.416;2022-12-13T08:03:38;96369.47;;;4.28;44.19
45078;BME280;60508;42.622;25.416;2022-12-13T08:06:10;96379.69;;;4.31;43.97
45078;BME280;60508;42.622;25.416;2022-12-13T08:08:36;96383.47;;;4.42;43.56
45078;BME280;60508;42.622;25.416;2022-12-13T08:11:05;96374.81;;;4.53;44.17
45078;BME280;60508;42.622;25.416;2022-12-13T08:13:32;96375.38;;;4.62;43.20
45078;BME280;60508;42.622;25.416;2022-12-13T08:16:04;96381.19;;;4.78;42.71
45078;BME280;60508;42.622;25.416;2022-12-13T08:18:32;96385.28;;;4.80;41.49
45078;BME280;60508;42.622;25.416;2022-12-13T08:21:02;96379.59;;;4.77;42.14
45078;BME280;60508;42.622;25.416;2022-12-13T08:23:30;96389.41;;;4.76;42.65
45078;BME280;60508;42.622;25.416;2022-12-13T08:25:56;96385.72;;;4.77;43.19
45078;BME280;60508;42.622;25.416;2022-12-13T08:28:23;96387.72;;;4.82;43.03
45078;BME280;60508;42.622;25.416;2022-12-13T08:30:50;96399.28;;;4.69;41.54
45078;BME280;60508;42.622;25.416;2022-12-13T08:33:17;96384.94;;;4.70;42.71
45078;BME280;60508;42.622;25.416;2022-12-13T08:35:43;96390.44;;;4.75;41.94
45078;BME280;60508;42.622;25.416;2022-12-13T08:38:09;96400.66;;;4.78;41.77
45078;BME280;60508;42.622;25.416;2022-12-13T08:40:35;96383.44;;;4.81;41.48
45078;BME280;60508;42.622;25.416;2022-12-13T08:43:02;96383.59;;;4.86;41.74
45078;BME280;60508;42.622;25.416;2022-12-13T08:45:37;96379.31;;;4.85;40.94
45078;BME280;60508;42.622;25.416;2022-12-13T08:48:03;96377.09;;;4.82;40.27
45078;BME280;60508;42.622;25.416;2022-12-13T08:50:29;96385.50;;;5.04;40.87
45078;BME280;60508;42.622;25.416;2022-12-13T08:52:55;96380.13;;;5.54;39.68
45078;BME280;60508;42.622;25.416;2022-12-13T08:55:21;96369.47;;;6.40;38.74
45078;BME280;60508;42.622;25.416;2022-12-13T08:57:47;96370.25;;;6.71;37.35
45078;BME280;60508;42.622;25.416;2022-12-13T09:00:18;96365.09;;;7.00;36.88
45078;BME280;60508;42.622;25.416;2022-12-13T09:02:44;96366.44;;;7.73;35.77
45078;BME280;60508;42.622;25.416;2022-12-13T09:05:10;96372.81;;;8.25;33.80
45078;BME280;60508;42.622;25.416;2022-12-13T09:07:37;96365.59;;;8.83;33.51
45078;BME280;60508;42.622;25.416;2022-12-13T09:10:08;96365.63;;;9.00;33.38
45078;BME280;60508;42.622;25.416;2022-12-13T09:12:35;96366.41;;;8.83;33.00
45078;BME280;60508;42.622;25.416;2022-12-13T09:15:00;96364.19;;;8.63;33.24
45078;BME280;60508;42.622;25.416;2022-12-13T09:17:26;96364.19;;;8.63;33.25
45078;BME280;60508;42.622;25.416;2022-12-13T09:19:53;96357.28;;;8.50;32.42
45078;BME280;60508;42.622;25.416;2022-12-13T09:22:19;96326.59;;;7.60;32.95
45078;BME280;60508;42.622;25.416;2022-12-13T09:24:46;96342.91;;;7.11;34.74
45078;BME280;60508;42.622;25.416;2022-12-13T09:27:11;96335.19;;;6.67;34.68
45078;BME280;60508;42.622;25.416;2022-12-13T09:29:37;96349.56;;;6.54;35.64
45078;BME280;60508;42.622;25.416;2022-12-13T09:32:04;96333.78;;;6.65;36.20
45078;BME280;60508;42.622;25.416;2022-12-13T09:34:33;96330.00;;;6.96;35.06
45078;BME280;60508;42.622;25.416;2022-12-13T09:36:59;96340.94;;;7.30;34.04
45078;BME280;60508;42.622;25.416;2022-12-13T09:39:25;96319.66;;;7.35;33.83
45078;BME280;60508;42.622;25.416;2022-12-13T09:41:53;96316.06;;;7.29;33.01
45078;BME280;60508;42.622;25.416;2022-12-13T09:44:23;96328.09;;;7.67;32.77
45078;BME280;60508;42.622;25.416;2022-12-13T09:46:50;96325.22;;;8.55;31.72
45078;BME280;60508;42.622;25.416;2022-12-13T09:49:34;96335.06;;;9.18;30.12
45078;BME280;60508;42.622;25.416;2022-12-13T09:52:04;96316.34;;;9.40;29.80
45078;BME280;60508;42.622;25.416;2022-12-13T09:54:32;96313.25;;;9.70;30.15
45078;BME280;60508;42.622;25.416;2022-12-13T09:56:58;96313.75;;;9.89;29.47
45078;BME280;60508;42.622;25.416;2022-12-13T09:59:32;96312.03;;;10.27;29.59
45078;BME280;60508;42.622;25.416;2022-12-13T10:02:14;96299.84;;;10.41;28.27
45078;BME280;60508;42.622;25.416;2022-12-13T10:04:42;96299.47;;;10.92;27.29
45078;BME280;60508;42.622;25.416;2022-12-13T10:07:16;96304.00;;;12.82;26.07
45078;BME280;60508;42.622;25.416;2022-12-13T10:09:43;96293.13;;;14.74;23.19
45078;BME280;60508;42.622;25.416;2022-12-13T10:12:12;96296.25;;;15.74;20.82
45078;BME280;60508;42.622;25.416;2022-12-13T10:14:43;96301.94;;;17.91;20.25
45078;BME280;60508;42.622;25.416;2022-12-13T10:17:14;96303.19;;;18.85;17.98
45078;BME280;60508;42.622;25.416;2022-12-13T10:19:45;96284.81;;;19.13;17.65
45078;BME280;60508;42.622;25.416;2022-12-13T10:22:16;96293.72;;;17.96;17.59
45078;BME280;60508;42.622;25.416;2022-12-13T10:24:51;96291.53;;;18.34;17.31
45078;BME280;60508;42.622;25.416;2022-12-13T10:27:26;96284.00;;;20.16;16.21
45078;BME280;60508;42.622;25.416;2022-12-13T10:32:47;96279.59;;;22.83;14.50
45078;BME280;60508;42.622;25.416;2022-12-13T10:35:27;96283.38;;;24.03;13.26
45078;BME280;60508;42.622;25.416;2022-12-13T10:37:56;96279.72;;;24.76;11.88
45078;BME280;60508;42.622;25.416;2022-12-13T10:40:37;96277.31;;;25.76;11.55
45078;BME280;60508;42.622;25.416;2022-12-13T10:43:19;96289.84;;;26.72;10.76
45078;BME280;60508;42.622;25.416;2022-12-13T10:48:22;96296.59;;;25.31;11.26
45078;BME280;60508;42.622;25.416;2022-12-13T10:51:02;96287.72;;;24.16;11.52
45078;BME280;60508;42.622;25.416;2022-12-13T10:53:32;96281.75;;;24.02;12.13
45078;BME280;60508;42.622;25.416;2022-12-13T10:55:59;96286.06;;;24.52;11.79
45078;BME280;60508;42.622;25.416;2022-12-13T10:58:34;96289.53;;;25.18;11.21
45078;BME280;60508;42.622;25.416;2022-12-13T11:03:34;96282.69;;;26.00;11.01
45078;BME280;60508;42.622;25.416;2022-12-13T11:06:13;96297.19;;;27.04;10.52
45078;BME280;60508;42.622;25.416;2022-12-13T11:08:39;96287.59;;;27.79;10.40
45078;BME280;60508;42.622;25.416;2022-12-13T11:11:07;96287.63;;;27.60;10.35
45078;BME280;60508;42.622;25.416;2022-12-13T11:18:50;96259.78;;;24.39;12.43
45078;BME280;60508;42.622;25.416;2022-12-13T11:21:23;96267.31;;;24.42;11.94
45078;BME280;60508;42.622;25.416;2022-12-13T11:23:50;96260.97;;;22.34;13.47
45078;BME280;60508;42.622;25.416;2022-12-13T11:26:19;96253.88;;;20.91;14.27
45078;BME280;60508;42.622;25.416;2022-12-13T11:32:29;96257.63;;;20.69;15.25
45078;BME280;60508;42.622;25.416;2022-12-13T11:37:25;96254.91;;;26.41;11.15
45078;BME280;60508;42.622;25.416;2022-12-13T11:40:02;96263.53;;;29.92;11.44
45078;BME280;60508;42.622;25.416;2022-12-13T11:42:38;96269.38;;;30.35;11.38
45078;BME280;60508;42.622;25.416;2022-12-13T11:45:18;96269.88;;;30.41;12.05
45078;BME280;60508;42.622;25.416;2022-12-13T11:48:16;96271.44;;;23.28;15.94
45078;BME280;60508;42.622;25.416;2022-12-13T11:50:46;96258.16;;;21.36;18.48
45078;BME280;60508;42.622;25.416;2022-12-13T11:55:41;96262.78;;;17.92;21.84
45078;BME280;60508;42.622;25.416;2022-12-13T11:58:28;96265.97;;;17.38;21.88
45078;BME280;60508;42.622;25.416;2022-12-13T12:01:08;96257.47;;;17.12;22.29
45078;BME280;60508;42.622;25.416;2022-12-13T12:04:01;96265.78;;;19.45;20.25
45078;BME280;60508;42.622;25.416;2022-12-13T12:06:28;96259.50;;;22.28;18.38
45078;BME280;60508;42.622;25.416;2022-12-13T12:09:03;96252.16;;;23.95;16.62
45078;BME280;60508;42.622;25.416;2022-12-13T12:11:38;96254.59;;;24.62;15.91
45078;BME280;60508;42.622;25.416;2022-12-13T12:14:23;96253.19;;;22.78;17.33
45078;BME280;60508;42.622;25.416;2022-12-13T12:16:57;96244.72;;;20.25;19.97
45078;BME280;60508;42.622;25.416;2022-12-13T12:19:35;96261.53;;;17.42;22.53
45078;BME280;60508;42.622;25.416;2022-12-13T12:30:52;96268.31;;;14.22;26.66
45078;BME280;60508;42.622;25.416;2022-12-13T12:36:37;96263.03;;;13.00;27.12
45078;BME280;60508;42.622;25.416;2022-12-13T12:42:18;96266.81;;;12.78;28.28
45078;BME280;60508;42.622;25.416;2022-12-13T12:44:56;96267.09;;;12.67;27.76
45078;BME280;60508;42.622;25.416;2022-12-13T12:53:02;96263.78;;;11.02;30.39
45078;BME280;60508;42.622;25.416;2022-12-13T13:03:43;96272.94;;;9.43;33.52
45078;BME280;60508;42.622;25.416;2022-12-13T13:08:48;96283.66;;;9.04;33.50
45078;BME280;60508;42.622;25.416;2022-12-13T13:11:15;96289.59;;;8.89;34.09
45078;BME280;60508;42.622;25.416;2022-12-13T13:18:52;96297.47;;;8.62;34.37
45078;BME280;60508;42.622;25.416;2022-12-13T13:21:26;96302.09;;;8.49;34.75
45078;BME280;60508;42.622;25.416;2022-12-13T13:26:38;96307.44;;;8.49;34.28
45078;BME280;60508;42.622;25.416;2022-12-13T13:32:03;96313.88;;;8.36;34.02
45078;BME280;60508;42.622;25.416;2022-12-13T13:34:40;96317.69;;;7.95;34.55
45078;BME280;60508;42.622;25.416;2022-12-13T13:39:56;96320.22;;;7.49;35.63
45078;BME280;60508;42.622;25.416;2022-12-13T13:42:25;96315.06;;;7.71;35.73
45078;BME280;60508;42.622;25.416;2022-12-13T13:45:18;96320.59;;;7.81;36.38
45078;BME280;60508;42.622;25.416;2022-12-13T13:55:58;96339.50;;;7.39;38.91
45078;BME280;60508;42.622;25.416;2022-12-13T13:59:04;96335.94;;;7.34;38.98
45078;BME280;60508;42.622;25.416;2022-12-13T14:04:43;96361.81;;;7.33;39.11
45078;BME280;60508;42.622;25.416;2022-12-13T14:16:04;96396.34;;;7.23;39.89
45078;BME280;60508;42.622;25.416;2022-12-13T14:21:27;96412.03;;;7.07;39.41
45078;BME280;60508;42.622;25.416;2022-12-13T14:27:56;96413.09;;;6.76;40.57
45078;BME280;60508;42.622;25.416;2022-12-13T14:30:24;96411.84;;;6.48;40.73
45078;BME280;60508;42.622;25.416;2022-12-13T14:32:51;96421.28;;;6.51;41.40
45078;BME280;60508;42.622;25.416;2022-12-13T14:35:35;96425.16;;;6.36;41.63
45078;BME280;60508;42.622;25.416;2022-12-13T14:38:03;96432.31;;;6.36;41.63
45078;BME280;60508;42.622;25.416;2022-12-13T14:40:32;96428.56;;;6.25;41.53
45078;BME280;60508;42.622;25.416;2022-12-13T14:42:59;96440.81;;;6.14;41.87
45078;BME280;60508;42.622;25.416;2022-12-13T14:45:29;96454.06;;;6.02;41.50
45078;BME280;60508;42.622;25.416;2022-12-13T14:48:11;96461.94;;;5.91;41.57
45078;BME280;60508;42.622;25.416;2022-12-13T14:50:40;96466.69;;;5.89;45.88
45078;BME280;60508;42.622;25.416;2022-12-13T14:56:14;96446.03;;;5.65;44.17
45078;BME280;60508;42.622;25.416;2022-12-13T14:58:52;96432.81;;;5.52;44.58
45078;BME280;60508;42.622;25.416;2022-12-13T15:01:25;96423.00;;;5.27;45.13
45078;BME280;60508;42.622;25.416;2022-12-13T15:03:51;96424.03;;;5.26;44.80
45078;BME280;60508;42.622;25.416;2022-12-13T15:06:19;96434.03;;;5.31;44.90